sensor_id;sensor_type;location;lat;lon;timestamp;pressure;altitude;pressure_sealevel;temperature;humidity
34961;BME280;30789;52.030;7.110;2023-09-12T00:21:22;100618.75;;;20.79;93.76
34961;BME280;30789;52.030;7.110;2023-09-12T00:23:56;100605.81;;;20.72;93.90
34961;BME280;30789;52.030;7.110;2023-09-12T00:29:57;100596.56;;;20.28;94.14
34961;BME280;30789;52.030;7.110;2023-09-12T00:32:30;100594.59;;;20.16;93.09
34961;BME280;30789;52.030;7.110;2023-09-12T00:34:59;100573.00;;;20.04;92.22
34961;BME280;30789;52.030;7.110;2023-09-12T00:43:49;100535.84;;;20.16;92.22
34961;BME280;30789;52.030;7.110;2023-09-12T00:53:24;100609.72;;;19.94;94.36
34961;BME280;30789;52.030;7.110;2023-09-12T00:55:55;100662.88;;;19.81;93.47
34961;BME280;30789;52.030;7.110;2023-09-12T00:58:27;100675.16;;;19.71;92.53
34961;BME280;30789;52.030;7.110;2023-09-12T01:01:04;100694.63;;;19.50;93.06
34961;BME280;30789;52.030;7.110;2023-09-12T01:03:34;100681.97;;;19.45;95.01
34961;BME280;30789;52.030;7.110;2023-09-12T01:06:08;100616.47;;;19.46;95.31
34961;BME280;30789;52.030;7.110;2023-09-12T01:08:35;100630.63;;;19.39;95.58
34961;BME280;30789;52.030;7.110;2023-09-12T01:11:14;100618.91;;;19.32;96.33
34961;BME280;30789;52.030;7.110;2023-09-12T01:13:47;100601.69;;;19.33;96.01
34961;BME280;30789;52.030;7.110;2023-09-12T01:16:36;100601.47;;;19.28;96.14
34961;BME280;30789;52.030;7.110;2023-09-12T01:19:12;100604.47;;;19.33;96.75
34961;BME280;30789;52.030;7.110;2023-09-12T01:22:09;100583.34;;;19.32;96.04
34961;BME280;30789;52.030;7.110;2023-09-12T01:25:20;100573.09;;;19.42;96.68
34961;BME280;30789;52.030;7.110;2023-09-12T01:37:20;100506.78;;;19.42;96.59
34961;BME280;30789;52.030;7.110;2023-09-12T01:57:20;100499.53;;;19.32;95.47
34961;BME280;30789;52.030;7.110;2023-09-12T02:06:55;100477.84;;;19.11;97.58
34961;BME280;30789;52.030;7.110;2023-09-12T02:09:55;100445.19;;;19.21;98.22
34961;BME280;30789;52.030;7.110;2023-09-12T02:12:44;100442.97;;;19.28;96.50
34961;BME280;30789;52.030;7.110;2023-09-12T02:16:15;100448.66;;;19.25;96.56
34961;BME280;30789;52.030;7.110;2023-09-12T02:36:10;100511.56;;;19.04;96.52
34961;BME280;30789;52.030;7.110;2023-09-12T03:05:48;100491.91;;;19.08;96.35
34961;BME280;30789;52.030;7.110;2023-09-12T03:11:30;100505.28;;;18.75;95.64
34961;BME280;30789;52.030;7.110;2023-09-12T03:14:08;100502.47;;;18.75;95.93
34961;BME280;30789;52.030;7.110;2023-09-12T03:19:55;100489.75;;;18.74;95.15
34961;BME280;30789;52.030;7.110;2023-09-12T03:22:57;100491.88;;;18.83;96.17
34961;BME280;30789;52.030;7.110;2023-09-12T03:32:07;100491.13;;;18.82;95.26
34961;BME280;30789;52.030;7.110;2023-09-12T03:34:53;100494.38;;;18.93;94.26
34961;BME280;30789;52.030;7.110;2023-09-12T03:37:45;100480.94;;;18.88;93.64
34961;BME280;30789;52.030;7.110;2023-09-12T03:40:20;100484.84;;;18.65;94.71
34961;BME280;30789;52.030;7.110;2023-09-12T03:42:49;100477.91;;;18.70;94.95
34961;BME280;30789;52.030;7.110;2023-09-12T03:45:19;100465.88;;;18.73;94.89
34961;BME280;30789;52.030;7.110;2023-09-12T03:47:46;100453.81;;;18.76;95.71
34961;BME280;30789;52.030;7.110;2023-09-12T03:50:16;100447.09;;;18.73;96.39
34961;BME280;30789;52.030;7.110;2023-09-12T03:52:47;100454.34;;;18.71;94.75
34961;BME280;30789;52.030;7.110;2023-09-12T03:55:16;100454.69;;;18.73;95.41
34961;BME280;30789;52.030;7.110;2023-09-12T03:57:48;100438.50;;;18.81;95.41
34961;BME280;30789;52.030;7.110;2023-09-12T04:00:15;100423.66;;;18.84;96.16
34961;BME280;30789;52.030;7.110;2023-09-12T04:02:48;100418.16;;;18.80;95.09
34961;BME280;30789;52.030;7.110;2023-09-12T04:05:22;100419.41;;;18.79;94.94
34961;BME280;30789;52.030;7.110;2023-09-12T04:08:15;100432.69;;;18.88;94.38
34961;BME280;30789;52.030;7.110;2023-09-12T04:10:56;100430.91;;;18.68;95.43
34961;BME280;30789;52.030;7.110;2023-09-12T04:13:40;100430.91;;;18.68;95.86
34961;BME280;30789;52.030;7.110;2023-09-12T04:16:14;100437.25;;;18.69;95.22
34961;BME280;30789;52.030;7.110;2023-09-12T04:18:49;100442.19;;;18.65;95.35
34961;BME280;30789;52.030;7.110;2023-09-12T04:24:46;100459.38;;;18.76;95.06
34961;BME280;30789;52.030;7.110;2023-09-12T04:27:20;100465.41;;;18.75;95.39
34961;BME280;30789;52.030;7.110;2023-09-12T04:29:48;100465.19;;;18.82;95.08
34961;BME280;30789;52.030;7.110;2023-09-12T04:32:16;100465.16;;;18.69;95.76
34961;BME280;30789;52.030;7.110;2023-09-12T04:34:48;100463.72;;;18.64;96.80
34961;BME280;30789;52.030;7.110;2023-09-12T04:37:15;100462.25;;;18.60;97.29
34961;BME280;30789;52.030;7.110;2023-09-12T04:39:42;100465.41;;;18.62;97.26
34961;BME280;30789;52.030;7.110;2023-09-12T04:42:47;100463.50;;;18.59;97.14
34961;BME280;30789;52.030;7.110;2023-09-12T04:45:41;100462.81;;;18.55;97.70
34961;BME280;30789;52.030;7.110;2023-09-12T04:48:21;100464.69;;;18.45;98.14
34961;BME280;30789;52.030;7.110;2023-09-12T04:54:19;100464.25;;;18.47;97.60
34961;BME280;30789;52.030;7.110;2023-09-12T04:56:55;100475.88;;;18.45;97.83
34961;BME280;30789;52.030;7.110;2023-09-12T04:59:48;100473.50;;;18.44;97.82
34961;BME280;30789;52.030;7.110;2023-09-12T05:02:22;100478.09;;;18.38;97.63
34961;BME280;30789;52.030;7.110;2023-09-12T05:04:48;100484.69;;;18.28;97.89
34961;BME280;30789;52.030;7.110;2023-09-12T05:07:15;100488.59;;;18.18;98.74
34961;BME280;30789;52.030;7.110;2023-09-12T05:09:44;100495.38;;;18.17;98.65
34961;BME280;30789;52.030;7.110;2023-09-12T05:12:13;100497.28;;;18.20;98.23
34961;BME280;30789;52.030;7.110;2023-09-12T05:18:04;100500.19;;;18.29;96.76
34961;BME280;30789;52.030;7.110;2023-09-12T05:20:34;100503.13;;;18.25;97.76
34961;BME280;30789;52.030;7.110;2023-09-12T05:23:03;100509.28;;;18.33;96.62
34961;BME280;30789;52.030;7.110;2023-09-12T05:29:07;100527.88;;;18.23;97.80
34961;BME280;30789;52.030;7.110;2023-09-12T05:31:35;100523.81;;;18.12;97.90
34961;BME280;30789;52.030;7.110;2023-09-12T05:34:03;100528.25;;;18.09;98.16
34961;BME280;30789;52.030;7.110;2023-09-12T05:36:30;100534.84;;;18.15;98.54
34961;BME280;30789;52.030;7.110;2023-09-12T05:39:01;100532.13;;;18.28;97.26
34961;BME280;30789;52.030;7.110;2023-09-12T05:41:29;100532.91;;;18.28;98.24
34961;BME280;30789;52.030;7.110;2023-09-12T05:43:55;100531.91;;;18.35;99.33
34961;BME280;30789;52.030;7.110;2023-09-12T05:46:26;100534.25;;;18.36;98.92
34961;BME280;30789;52.030;7.110;2023-09-12T05:48:55;100535.94;;;18.34;97.66
34961;BME280;30789;52.030;7.110;2023-09-12T05:51:23;100530.66;;;18.39;97.54
34961;BME280;30789;52.030;7.110;2023-09-12T05:53:50;100527.75;;;18.43;98.61
34961;BME280;30789;52.030;7.110;2023-09-12T05:56:16;100527.41;;;18.41;97.17
34961;BME280;30789;52.030;7.110;2023-09-12T05:58:46;100526.41;;;18.47;97.01
34961;BME280;30789;52.030;7.110;2023-09-12T06:01:15;100534.91;;;18.44;96.34
34961;BME280;30789;52.030;7.110;2023-09-12T06:03:45;100536.81;;;18.59;96.36
34961;BME280;30789;52.030;7.110;2023-09-12T06:06:11;100518.97;;;18.57;96.06
34961;BME280;30789;52.030;7.110;2023-09-12T06:08:42;100516.75;;;18.64;96.69
34961;BME280;30789;52.030;7.110;2023-09-12T06:11:09;100517.44;;;18.68;97.18
34961;BME280;30789;52.030;7.110;2023-09-12T06:13:35;100516.75;;;18.64;95.65
34961;BME280;30789;52.030;7.110;2023-09-12T06:16:04;100520.66;;;18.54;96.31
34961;BME280;30789;52.030;7.110;2023-09-12T06:18:31;100512.72;;;18.53;97.36
34961;BME280;30789;52.030;7.110;2023-09-12T06:21:00;100512.16;;;18.58;97.96
34961;BME280;30789;52.030;7.110;2023-09-12T06:23:29;100521.22;;;18.62;97.65
34961;BME280;30789;52.030;7.110;2023-09-12T06:26:27;100535.38;;;18.55;96.83
34961;BME280;30789;52.030;7.110;2023-09-12T06:29:11;100558.41;;;18.59;97.10
34961;BME280;30789;52.030;7.110;2023-09-12T06:31:38;100567.53;;;18.59;96.97
34961;BME280;30789;52.030;7.110;2023-09-12T06:34:08;100574.00;;;18.56;96.99
34961;BME280;30789;52.030;7.110;2023-09-12T06:36:38;100582.81;;;18.55;97.21
34961;BME280;30789;52.030;7.110;2023-09-12T06:39:12;100589.09;;;18.59;98.06
34961;BME280;30789;52.030;7.110;2023-09-12T06:41:40;100599.69;;;18.64;99.02
34961;BME280;30789;52.030;7.110;2023-09-12T06:44:07;100600.50;;;18.64;99.08
34961;BME280;30789;52.030;7.110;2023-09-12T06:46:36;100598.94;;;18.63;98.34
34961;BME280;30789;52.030;7.110;2023-09-12T06:49:03;100598.19;;;18.76;98.35
34961;BME280;30789;52.030;7.110;2023-09-12T06:51:33;100594.81;;;18.68;98.90
34961;BME280;30789;52.030;7.110;2023-09-12T06:54:00;100596.63;;;18.75;98.77
34961;BME280;30789;52.030;7.110;2023-09-12T06:56:26;100589.72;;;18.79;98.84
34961;BME280;30789;52.030;7.110;2023-09-12T06:58:55;100593.97;;;18.84;98.75
34961;BME280;30789;52.030;7.110;2023-09-12T07:01:21;100597.88;;;18.86;98.53
34961;BME280;30789;52.030;7.110;2023-09-12T07:03:54;100598.78;;;18.83;98.75
34961;BME280;30789;52.030;7.110;2023-09-12T07:06:21;100608.88;;;18.93;98.62
34961;BME280;30789;52.030;7.110;2023-09-12T07:08:55;100619.44;;;18.86;98.97
34961;BME280;30789;52.030;7.110;2023-09-12T07:11:22;100628.16;;;18.88;99.58
34961;BME280;30789;52.030;7.110;2023-09-12T07:13:49;100634.28;;;18.83;99.81
34961;BME280;30789;52.030;7.110;2023-09-12T07:16:17;100635.88;;;18.84;99.99
34961;BME280;30789;52.030;7.110;2023-09-12T07:18:45;100647.47;;;18.82;99.63
34961;BME280;30789;52.030;7.110;2023-09-12T07:29:38;100614.69;;;18.99;99.95
34961;BME280;30789;52.030;7.110;2023-09-12T07:32:06;100604.19;;;19.03;99.96
34961;BME280;30789;52.030;7.110;2023-09-12T07:34:33;100593.44;;;19.01;99.52
34961;BME280;30789;52.030;7.110;2023-09-12T07:37:00;100581.25;;;18.95;99.50
34961;BME280;30789;52.030;7.110;2023-09-12T07:39:30;100581.59;;;18.97;99.93
34961;BME280;30789;52.030;7.110;2023-09-12T07:42:00;100583.50;;;19.00;99.89
34961;BME280;30789;52.030;7.110;2023-09-12T07:44:28;100568.75;;;19.00;100.00
34961;BME280;30789;52.030;7.110;2023-09-12T07:46:54;100571.91;;;19.02;99.77
34961;BME280;30789;52.030;7.110;2023-09-12T07:49:22;100559.38;;;19.06;99.61
34961;BME280;30789;52.030;7.110;2023-09-12T07:51:51;100552.13;;;19.09;99.90
34961;BME280;30789;52.030;7.110;2023-09-12T07:54:19;100541.63;;;19.13;98.87
34961;BME280;30789;52.030;7.110;2023-09-12T07:56:45;100538.16;;;19.09;98.98
34961;BME280;30789;52.030;7.110;2023-09-12T07:59:12;100535.69;;;19.11;98.71
34961;BME280;30789;52.030;7.110;2023-09-12T08:01:40;100534.03;;;19.13;98.98
34961;BME280;30789;52.030;7.110;2023-09-12T08:04:15;100533.25;;;19.13;99.08
34961;BME280;30789;52.030;7.110;2023-09-12T09:25:26;100608.22;;;20.61;91.35
34961;BME280;30789;52.030;7.110;2023-09-12T09:28:20;100609.38;;;20.73;91.63
34961;BME280;30789;52.030;7.110;2023-09-12T10:25:23;100666.81;;;26.18;62.70
34961;BME280;30789;52.030;7.110;2023-09-12T10:27:51;100663.59;;;25.32;66.67
34961;BME280;30789;52.030;7.110;2023-09-12T10:30:23;100664.09;;;24.31;66.77
34961;BME280;30789;52.030;7.110;2023-09-12T10:32:52;100651.91;;;24.48;66.62
34961;BME280;30789;52.030;7.110;2023-09-12T10:35:19;100667.75;;;23.90;70.54
34961;BME280;30789;52.030;7.110;2023-09-12T10:37:47;100663.56;;;24.65;68.89
34961;BME280;30789;52.030;7.110;2023-09-12T10:40:16;100672.28;;;25.43;65.39
34961;BME280;30789;52.030;7.110;2023-09-12T10:42:49;100670.13;;;27.17;60.16
34961;BME280;30789;52.030;7.110;2023-09-12T10:45:20;100670.31;;;27.59;54.99
34961;BME280;30789;52.030;7.110;2023-09-12T10:47:51;100660.66;;;28.07;57.06
34961;BME280;30789;52.030;7.110;2023-09-12T10:50:38;100667.56;;;29.02;53.20
34961;BME280;30789;52.030;7.110;2023-09-12T10:53:17;100656.78;;;30.22;48.74
34961;BME280;30789;52.030;7.110;2023-09-12T10:56:32;100661.84;;;28.96;50.82
34961;BME280;30789;52.030;7.110;2023-09-12T10:59:20;100653.16;;;27.73;54.62
34961;BME280;30789;52.030;7.110;2023-09-12T11:01:52;100649.53;;;28.04;54.34
34961;BME280;30789;52.030;7.110;2023-09-12T11:04:35;100646.34;;;26.83;57.71
34961;BME280;30789;52.030;7.110;2023-09-12T11:07:34;100639.75;;;27.12;58.36
34961;BME280;30789;52.030;7.110;2023-09-12T11:10:16;100639.81;;;28.10;56.75
34961;BME280;30789;52.030;7.110;2023-09-12T11:12:55;100638.47;;;27.38;59.45
34961;BME280;30789;52.030;7.110;2023-09-12T11:15:28;100636.91;;;26.26;60.09
34961;BME280;30789;52.030;7.110;2023-09-12T11:18:01;100635.13;;;27.14;58.28
34961;BME280;30789;52.030;7.110;2023-09-12T11:20:50;100644.22;;;28.17;53.58
34961;BME280;30789;52.030;7.110;2023-09-12T11:23:26;100645.16;;;27.72;54.66
34961;BME280;30789;52.030;7.110;2023-09-12T11:26:05;100640.34;;;27.47;56.20
34961;BME280;30789;52.030;7.110;2023-09-12T11:28:40;100641.72;;;27.57;55.15
34961;BME280;30789;52.030;7.110;2023-09-12T11:31:24;100630.28;;;27.20;54.20
34961;BME280;30789;52.030;7.110;2023-09-12T11:33:56;100639.53;;;27.41;53.72
34961;BME280;30789;52.030;7.110;2023-09-12T11:36:41;100634.44;;;26.53;56.91
34961;BME280;30789;52.030;7.110;2023-09-12T11:39:22;100631.00;;;27.15;55.08
34961;BME280;30789;52.030;7.110;2023-09-12T11:41:53;100628.59;;;27.28;56.90
34961;BME280;30789;52.030;7.110;2023-09-12T11:44:21;100630.34;;;28.19;53.31
34961;BME280;30789;52.030;7.110;2023-09-12T11:47:04;100630.13;;;28.33;51.99
34961;BME280;30789;52.030;7.110;2023-09-12T11:49:39;100624.66;;;28.72;52.61
34961;BME280;30789;52.030;7.110;2023-09-12T11:52:14;100616.53;;;29.46;51.15
34961;BME280;30789;52.030;7.110;2023-09-12T11:54:42;100617.84;;;29.50;50.19
34961;BME280;30789;52.030;7.110;2023-09-12T11:57:13;100612.66;;;29.87;50.85
34961;BME280;30789;52.030;7.110;2023-09-12T12:00:02;100614.31;;;30.46;46.56
34961;BME280;30789;52.030;7.110;2023-09-12T12:02:38;100606.94;;;29.98;47.41
34961;BME280;30789;52.030;7.110;2023-09-12T12:05:10;100608.53;;;29.22;48.44
34961;BME280;30789;52.030;7.110;2023-09-12T12:10:18;100603.00;;;28.16;54.69
34961;BME280;30789;52.030;7.110;2023-09-12T12:12:45;100599.41;;;28.21;53.68
34961;BME280;30789;52.030;7.110;2023-09-12T12:15:14;100586.88;;;28.44;51.88
34961;BME280;30789;52.030;7.110;2023-09-12T12:17:42;100585.13;;;28.47;52.73
34961;BME280;30789;52.030;7.110;2023-09-12T12:20:10;100586.38;;;27.56;57.34
34961;BME280;30789;52.030;7.110;2023-09-12T12:22:37;100590.53;;;27.60;57.45
34961;BME280;30789;52.030;7.110;2023-09-12T12:25:07;100584.09;;;27.03;58.97
34961;BME280;30789;52.030;7.110;2023-09-12T12:27:36;100574.41;;;26.84;61.30
34961;BME280;30789;52.030;7.110;2023-09-12T12:30:04;100574.81;;;27.03;57.31
34961;BME280;30789;52.030;7.110;2023-09-12T12:32:31;100571.28;;;26.82;58.07
34961;BME280;30789;52.030;7.110;2023-09-12T12:34:59;100564.59;;;26.80;56.63
34961;BME280;30789;52.030;7.110;2023-09-12T12:37:29;100569.25;;;26.83;60.40
34961;BME280;30789;52.030;7.110;2023-09-12T12:39:57;100575.66;;;27.09;57.60
34961;BME280;30789;52.030;7.110;2023-09-12T12:42:23;100570.47;;;28.00;55.84
34961;BME280;30789;52.030;7.110;2023-09-12T12:44:53;100577.81;;;28.34;55.14
34961;BME280;30789;52.030;7.110;2023-09-12T12:47:20;100572.69;;;28.38;50.51
34961;BME280;30789;52.030;7.110;2023-09-12T12:49:50;100578.16;;;28.53;50.51
34961;BME280;30789;52.030;7.110;2023-09-12T12:52:23;100579.84;;;28.28;51.61
34961;BME280;30789;52.030;7.110;2023-09-12T12:54:52;100582.94;;;27.83;52.79
34961;BME280;30789;52.030;7.110;2023-09-12T12:57:19;100573.41;;;27.18;54.18
34961;BME280;30789;52.030;7.110;2023-09-12T12:59:46;100577.03;;;26.67;57.54
34961;BME280;30789;52.030;7.110;2023-09-12T13:02:13;100578.03;;;27.16;53.68
34961;BME280;30789;52.030;7.110;2023-09-12T13:04:39;100576.31;;;26.52;55.44
34961;BME280;30789;52.030;7.110;2023-09-12T13:07:06;100577.75;;;25.88;60.34
34961;BME280;30789;52.030;7.110;2023-09-12T13:09:34;100579.44;;;26.14;58.94
34961;BME280;30789;52.030;7.110;2023-09-12T13:12:00;100573.16;;;27.16;57.07
34961;BME280;30789;52.030;7.110;2023-09-12T13:14:29;100578.16;;;28.48;53.36
34961;BME280;30789;52.030;7.110;2023-09-12T13:16:57;100564.66;;;29.40;51.46
34961;BME280;30789;52.030;7.110;2023-09-12T13:19:24;100562.13;;;30.38;46.90
34961;BME280;30789;52.030;7.110;2023-09-12T13:21:50;100561.44;;;30.67;45.55
34961;BME280;30789;52.030;7.110;2023-09-12T13:24:17;100564.34;;;30.56;46.08
34961;BME280;30789;52.030;7.110;2023-09-12T13:26:45;100559.84;;;30.82;46.08
34961;BME280;30789;52.030;7.110;2023-09-12T13:29:11;100558.50;;;30.37;46.42
34961;BME280;30789;52.030;7.110;2023-09-12T13:31:38;100557.88;;;30.61;45.39
34961;BME280;30789;52.030;7.110;2023-09-12T13:34:04;100554.03;;;29.62;47.92
34961;BME280;30789;52.030;7.110;2023-09-12T13:36:31;100555.50;;;28.53;50.21
34961;BME280;30789;52.030;7.110;2023-09-12T13:38:57;100552.50;;;27.72;53.18
34961;BME280;30789;52.030;7.110;2023-09-12T13:41:24;100547.94;;;27.44;54.66
34961;BME280;30789;52.030;7.110;2023-09-12T13:43:52;100554.78;;;27.06;58.42
34961;BME280;30789;52.030;7.110;2023-09-12T13:46:18;100552.13;;;27.54;55.82
34961;BME280;30789;52.030;7.110;2023-09-12T13:48:45;100546.06;;;29.39;53.51
34961;BME280;30789;52.030;7.110;2023-09-12T13:51:11;100548.84;;;30.57;49.96
34961;BME280;30789;52.030;7.110;2023-09-12T13:53:38;100548.03;;;31.37;45.72
34961;BME280;30789;52.030;7.110;2023-09-12T13:56:05;100542.88;;;31.60;45.19
34961;BME280;30789;52.030;7.110;2023-09-12T13:58:31;100541.16;;;32.24;42.96
34961;BME280;30789;52.030;7.110;2023-09-12T14:01:00;100540.75;;;31.66;44.73
34961;BME280;30789;52.030;7.110;2023-09-12T14:03:27;100545.22;;;31.62;43.08
34961;BME280;30789;52.030;7.110;2023-09-12T14:05:54;100548.13;;;32.04;42.41
34961;BME280;30789;52.030;7.110;2023-09-12T14:08:22;100538.41;;;32.37;42.38
34961;BME280;30789;52.030;7.110;2023-09-12T14:10:50;100535.25;;;31.98;43.20
34961;BME280;30789;52.030;7.110;2023-09-12T14:13:16;100534.38;;;32.27;43.35
34961;BME280;30789;52.030;7.110;2023-09-12T14:15:43;100529.94;;;32.07;40.58
34961;BME280;30789;52.030;7.110;2023-09-12T14:18:14;100534.63;;;32.47;40.23
34961;BME280;30789;52.030;7.110;2023-09-12T14:20:41;100526.84;;;31.87;39.93
34961;BME280;30789;52.030;7.110;2023-09-12T14:23:07;100526.38;;;30.53;44.54
34961;BME280;30789;52.030;7.110;2023-09-12T14:25:34;100523.09;;;30.33;45.12
34961;BME280;30789;52.030;7.110;2023-09-12T14:28:00;100515.84;;;29.52;45.92
34961;BME280;30789;52.030;7.110;2023-09-12T14:30:29;100518.81;;;30.04;44.99
34961;BME280;30789;52.030;7.110;2023-09-12T14:33:00;100527.72;;;30.41;43.88
34961;BME280;30789;52.030;7.110;2023-09-12T14:35:28;100516.56;;;30.49;44.09
34961;BME280;30789;52.030;7.110;2023-09-12T14:37:55;100518.38;;;30.46;45.09
34961;BME280;30789;52.030;7.110;2023-09-12T14:40:23;100518.94;;;30.39;45.11
34961;BME280;30789;52.030;7.110;2023-09-12T14:42:50;100523.84;;;30.39;44.53
34961;BME280;30789;52.030;7.110;2023-09-12T14:45:17;100518.75;;;30.26;45.52
34961;BME280;30789;52.030;7.110;2023-09-12T14:47:43;100511.94;;;29.83;46.18
34961;BME280;30789;52.030;7.110;2023-09-12T14:50:09;100517.63;;;29.77;47.49
34961;BME280;30789;52.030;7.110;2023-09-12T14:52:37;100511.94;;;29.77;46.89
34961;BME280;30789;52.030;7.110;2023-09-12T14:55:05;100505.78;;;29.51;48.41
34961;BME280;30789;52.030;7.110;2023-09-12T14:57:34;100505.78;;;29.51;47.23
34961;BME280;30789;52.030;7.110;2023-09-12T15:00:00;100506.06;;;29.26;49.11
34961;BME280;30789;52.030;7.110;2023-09-12T15:02:27;100500.91;;;29.19;47.85
34961;BME280;30789;52.030;7.110;2023-09-12T15:04:56;100503.00;;;29.07;48.79
34961;BME280;30789;52.030;7.110;2023-09-12T15:07:23;100495.19;;;28.75;48.35
34961;BME280;30789;52.030;7.110;2023-09-12T15:09:51;100495.94;;;28.48;49.73
34961;BME280;30789;52.030;7.110;2023-09-12T15:12:17;100487.97;;;28.57;50.80
34961;BME280;30789;52.030;7.110;2023-09-12T15:14:44;100493.88;;;28.48;50.48
34961;BME280;30789;52.030;7.110;2023-09-12T15:17:10;100492.06;;;28.45;51.65
34961;BME280;30789;52.030;7.110;2023-09-12T15:19:37;100490.38;;;28.05;52.77
34961;BME280;30789;52.030;7.110;2023-09-12T15:22:03;100492.44;;;28.05;52.57
34961;BME280;30789;52.030;7.110;2023-09-12T15:24:30;100492.66;;;27.96;51.51
34961;BME280;30789;52.030;7.110;2023-09-12T15:26:58;100477.63;;;27.84;53.00
34961;BME280;30789;52.030;7.110;2023-09-12T15:29:24;100484.38;;;27.45;54.78
34961;BME280;30789;52.030;7.110;2023-09-12T15:31:53;100478.41;;;27.37;55.51
34961;BME280;30789;52.030;7.110;2023-09-12T15:34:19;100476.81;;;27.31;54.33
34961;BME280;30789;52.030;7.110;2023-09-12T15:36:47;100473.28;;;27.41;54.14
34961;BME280;30789;52.030;7.110;2023-09-12T15:39:14;100482.56;;;27.42;54.03
34961;BME280;30789;52.030;7.110;2023-09-12T15:41:41;100475.59;;;27.06;55.86
34961;BME280;30789;52.030;7.110;2023-09-12T15:44:09;100477.28;;;27.24;55.19
34961;BME280;30789;52.030;7.110;2023-09-12T15:46:36;100482.53;;;27.05;55.83
34961;BME280;30789;52.030;7.110;2023-09-12T15:49:03;100482.81;;;27.07;56.69
34961;BME280;30789;52.030;7.110;2023-09-12T15:51:30;100472.81;;;26.81;56.02
34961;BME280;30789;52.030;7.110;2023-09-12T15:53:57;100463.94;;;26.93;56.67
34961;BME280;30789;52.030;7.110;2023-09-12T15:56:24;100462.63;;;26.63;57.36
34961;BME280;30789;52.030;7.110;2023-09-12T15:58:51;100461.94;;;26.73;58.17
34961;BME280;30789;52.030;7.110;2023-09-12T16:01:19;100464.81;;;26.79;56.01
34961;BME280;30789;52.030;7.110;2023-09-12T16:03:45;100464.03;;;26.78;56.61
34961;BME280;30789;52.030;7.110;2023-09-12T16:06:12;100462.69;;;26.68;56.20
34961;BME280;30789;52.030;7.110;2023-09-12T16:08:38;100462.41;;;26.66;57.67
34961;BME280;30789;52.030;7.110;2023-09-12T16:11:05;100456.00;;;26.20;59.26
34961;BME280;30789;52.030;7.110;2023-09-12T16:13:31;100454.16;;;26.17;59.76
34961;BME280;30789;52.030;7.110;2023-09-12T16:15:58;100454.13;;;26.12;59.60
34961;BME280;30789;52.030;7.110;2023-09-12T16:18:26;100450.16;;;26.04;59.72
34961;BME280;30789;52.030;7.110;2023-09-12T16:20:52;100455.31;;;26.05;59.67
34961;BME280;30789;52.030;7.110;2023-09-12T16:23:19;100457.59;;;26.01;60.96
34961;BME280;30789;52.030;7.110;2023-09-12T16:25:46;100462.22;;;25.84;59.24
34961;BME280;30789;52.030;7.110;2023-09-12T16:28:16;100449.09;;;25.61;59.73
34961;BME280;30789;52.030;7.110;2023-09-12T16:30:42;100441.97;;;25.66;58.95
34961;BME280;30789;52.030;7.110;2023-09-12T16:33:09;100439.00;;;25.55;61.91
34961;BME280;30789;52.030;7.110;2023-09-12T16:35:37;100441.47;;;25.47;61.36
34961;BME280;30789;52.030;7.110;2023-09-12T16:38:03;100443.50;;;25.47;59.70
34961;BME280;30789;52.030;7.110;2023-09-12T16:40:30;100445.66;;;25.37;61.03
34961;BME280;30789;52.030;7.110;2023-09-12T16:42:57;100442.41;;;25.09;62.27
34961;BME280;30789;52.030;7.110;2023-09-12T16:45:24;100434.56;;;24.99;63.52
34961;BME280;30789;52.030;7.110;2023-09-12T16:47:50;100446.56;;;24.79;64.20
34961;BME280;30789;52.030;7.110;2023-09-12T16:50:17;100455.50;;;24.78;63.91
34961;BME280;30789;52.030;7.110;2023-09-12T16:52:46;100453.81;;;24.42;66.55
34961;BME280;30789;52.030;7.110;2023-09-12T16:55:13;100468.25;;;24.21;67.08
34961;BME280;30789;52.030;7.110;2023-09-12T16:57:41;100476.19;;;23.84;68.85
34961;BME280;30789;52.030;7.110;2023-09-12T17:00:08;100479.88;;;23.76;69.12
34961;BME280;30789;52.030;7.110;2023-09-12T17:02:35;100491.34;;;23.63;70.61
34961;BME280;30789;52.030;7.110;2023-09-12T17:05:02;100490.16;;;23.55;69.76
34961;BME280;30789;52.030;7.110;2023-09-12T17:07:29;100491.50;;;23.36;70.83
34961;BME280;30789;52.030;7.110;2023-09-12T17:09:57;100494.56;;;23.14;72.47
34961;BME280;30789;52.030;7.110;2023-09-12T17:12:24;100496.13;;;23.06;72.71
34961;BME280;30789;52.030;7.110;2023-09-12T17:14:51;100503.22;;;22.93;73.76
34961;BME280;30789;52.030;7.110;2023-09-12T17:17:17;100500.47;;;22.75;75.24
34961;BME280;30789;52.030;7.110;2023-09-12T17:19:44;100500.16;;;22.64;75.68
34961;BME280;30789;52.030;7.110;2023-09-12T17:22:11;100496.91;;;22.56;76.05
34961;BME280;30789;52.030;7.110;2023-09-12T17:24:37;100492.53;;;22.55;76.40
34961;BME280;30789;52.030;7.110;2023-09-12T17:27:05;100502.53;;;22.56;76.65
34961;BME280;30789;52.030;7.110;2023-09-12T17:29:32;100499.84;;;22.44;77.23
34961;BME280;30789;52.030;7.110;2023-09-12T17:32:01;100493.44;;;22.43;77.11
34961;BME280;30789;52.030;7.110;2023-09-12T17:34:37;100487.69;;;22.47;77.25
34961;BME280;30789;52.030;7.110;2023-09-12T17:37:05;100472.56;;;22.35;78.17
34961;BME280;30789;52.030;7.110;2023-09-12T17:39:32;100467.75;;;22.27;79.12
34961;BME280;30789;52.030;7.110;2023-09-12T17:41:58;100477.56;;;22.31;79.90
34961;BME280;30789;52.030;7.110;2023-09-12T17:44:26;100476.47;;;22.38;79.76
34961;BME280;30789;52.030;7.110;2023-09-12T17:46:53;100474.75;;;22.40;80.20
34961;BME280;30789;52.030;7.110;2023-09-12T17:49:19;100474.75;;;22.40;80.08
34961;BME280;30789;52.030;7.110;2023-09-12T17:51:46;100478.50;;;22.37;80.32
34961;BME280;30789;52.030;7.110;2023-09-12T17:54:12;100478.50;;;22.28;80.77
34961;BME280;30789;52.030;7.110;2023-09-12T17:56:39;100481.00;;;22.17;81.22